sensor_id;sensor_type;location;lat;lon;timestamp;temperature;humidity
11989;DHT22;6054;50.966;7.094;2023-06-14T00:01:02;30.50;31.30
11989;DHT22;6054;50.966;7.094;2023-06-14T00:03:31;30.50;31.10
11989;DHT22;6054;50.966;7.094;2023-06-14T00:05:58;30.50;31.00
11989;DHT22;6054;50.966;7.094;2023-06-14T00:08:25;30.40;30.70
11989;DHT22;6054;50.966;7.094;2023-06-14T00:10:52;30.60;31.00
11989;DHT22;6054;50.966;7.094;2023-06-14T00:13:19;30.20;30.30
11989;DHT22;6054;50.966;7.094;2023-06-14T00:15:47;30.20;30.60
11989;DHT22;6054;50.966;7.094;2023-06-14T00:18:14;30.10;30.20
11989;DHT22;6054;50.966;7.094;2023-06-14T00:20:41;30.10;30.60
11989;DHT22;6054;50.966;7.094;2023-06-14T00:23:08;30.10;30.60
11989;DHT22;6054;50.966;7.094;2023-06-14T00:25:35;30.10;30.50
11989;DHT22;6054;50.966;7.094;2023-06-14T00:28:02;30.00;30.20
11989;DHT22;6054;50.966;7.094;2023-06-14T00:30:29;30.00;30.50
11989;DHT22;6054;50.966;7.094;2023-06-14T00:32:57;30.10;30.50
11989;DHT22;6054;50.966;7.094;2023-06-14T00:35:24;29.80;30.20
11989;DHT22;6054;50.966;7.094;2023-06-14T00:37:51;29.80;30.40
11989;DHT22;6054;50.966;7.094;2023-06-14T00:40:20;29.90;30.60
11989;DHT22;6054;50.966;7.094;2023-06-14T00:42:47;29.70;30.20
11989;DHT22;6054;50.966;7.094;2023-06-14T00:45:13;29.70;30.60
11989;DHT22;6054;50.966;7.094;2023-06-14T00:47:41;29.80;30.50
11989;DHT22;6054;50.966;7.094;2023-06-14T00:50:10;29.80;30.80
11989;DHT22;6054;50.966;7.094;2023-06-14T00:52:39;29.70;30.90
11989;DHT22;6054;50.966;7.094;2023-06-14T00:55:06;29.70;30.50
11989;DHT22;6054;50.966;7.094;2023-06-14T00:57:33;29.60;30.70
11989;DHT22;6054;50.966;7.094;2023-06-14T01:00:03;29.80;30.70
11989;DHT22;6054;50.966;7.094;2023-06-14T01:02:34;29.60;30.90
11989;DHT22;6054;50.966;7.094;2023-06-14T01:05:02;29.60;30.90
11989;DHT22;6054;50.966;7.094;2023-06-14T01:07:36;29.50;31.00
11989;DHT22;6054;50.966;7.094;2023-06-14T01:10:26;29.60;32.00
11989;DHT22;6054;50.966;7.094;2023-06-14T01:13:02;29.50;31.70
11989;DHT22;6054;50.966;7.094;2023-06-14T01:15:30;29.30;31.50
11989;DHT22;6054;50.966;7.094;2023-06-14T01:17:57;29.30;31.60
11989;DHT22;6054;50.966;7.094;2023-06-14T01:20:29;29.30;31.60
11989;DHT22;6054;50.966;7.094;2023-06-14T01:22:58;29.20;31.70
11989;DHT22;6054;50.966;7.094;2023-06-14T01:25:25;29.20;31.50
11989;DHT22;6054;50.966;7.094;2023-06-14T01:27:53;29.20;31.10
11989;DHT22;6054;50.966;7.094;2023-06-14T01:30:22;29.20;31.50
11989;DHT22;6054;50.966;7.094;2023-06-14T01:32:51;29.30;31.40
11989;DHT22;6054;50.966;7.094;2023-06-14T01:35:18;29.10;31.10
11989;DHT22;6054;50.966;7.094;2023-06-14T01:37:47;29.10;30.50
11989;DHT22;6054;50.966;7.094;2023-06-14T01:40:17;29.00;30.70
11989;DHT22;6054;50.966;7.094;2023-06-14T01:42:46;29.00;30.70
11989;DHT22;6054;50.966;7.094;2023-06-14T01:45:14;29.10;30.70
11989;DHT22;6054;50.966;7.094;2023-06-14T01:47:41;29.10;30.00
11989;DHT22;6054;50.966;7.094;2023-06-14T01:50:09;29.00;29.60
11989;DHT22;6054;50.966;7.094;2023-06-14T01:52:36;29.00;29.80
11989;DHT22;6054;50.966;7.094;2023-06-14T01:55:04;28.90;29.40
11989;DHT22;6054;50.966;7.094;2023-06-14T01:57:32;29.00;29.20
11989;DHT22;6054;50.966;7.094;2023-06-14T01:59:59;29.20;29.20
11989;DHT22;6054;50.966;7.094;2023-06-14T02:02:26;29.10;28.90
11989;DHT22;6054;50.966;7.094;2023-06-14T02:04:52;29.10;29.00
11989;DHT22;6054;50.966;7.094;2023-06-14T02:07:22;28.90;28.90
11989;DHT22;6054;50.966;7.094;2023-06-14T02:09:50;28.90;28.90
11989;DHT22;6054;50.966;7.094;2023-06-14T02:12:16;28.80;28.70
11989;DHT22;6054;50.966;7.094;2023-06-14T02:14:44;28.90;28.90
11989;DHT22;6054;50.966;7.094;2023-06-14T02:17:11;29.10;29.00
11989;DHT22;6054;50.966;7.094;2023-06-14T02:19:38;29.00;29.10
11989;DHT22;6054;50.966;7.094;2023-06-14T02:22:06;28.90;29.30
11989;DHT22;6054;50.966;7.094;2023-06-14T02:24:33;28.80;29.90
11989;DHT22;6054;50.966;7.094;2023-06-14T02:26:59;28.70;30.20
11989;DHT22;6054;50.966;7.094;2023-06-14T02:29:26;28.70;30.50
11989;DHT22;6054;50.966;7.094;2023-06-14T02:31:54;28.70;30.50
11989;DHT22;6054;50.966;7.094;2023-06-14T02:34:21;28.60;30.40
11989;DHT22;6054;50.966;7.094;2023-06-14T02:36:47;28.70;30.70
11989;DHT22;6054;50.966;7.094;2023-06-14T02:39:15;28.70;30.90
11989;DHT22;6054;50.966;7.094;2023-06-14T02:41:43;28.40;31.00
11989;DHT22;6054;50.966;7.094;2023-06-14T02:44:09;28.40;31.10
11989;DHT22;6054;50.966;7.094;2023-06-14T02:46:37;28.60;31.30
11989;DHT22;6054;50.966;7.094;2023-06-14T02:49:05;28.20;31.00
11989;DHT22;6054;50.966;7.094;2023-06-14T02:51:32;28.20;31.20
11989;DHT22;6054;50.966;7.094;2023-06-14T02:53:58;28.30;31.70
11989;DHT22;6054;50.966;7.094;2023-06-14T02:56:27;28.10;31.80
11989;DHT22;6054;50.966;7.094;2023-06-14T02:58:54;28.00;31.80
11989;DHT22;6054;50.966;7.094;2023-06-14T03:01:20;28.10;32.00
11989;DHT22;6054;50.966;7.094;2023-06-14T03:03:48;27.90;32.00
11989;DHT22;6054;50.966;7.094;2023-06-14T03:06:16;27.90;32.10
11989;DHT22;6054;50.966;7.094;2023-06-14T03:08:44;27.70;32.00
11989;DHT22;6054;50.966;7.094;2023-06-14T03:11:11;27.70;32.10
11989;DHT22;6054;50.966;7.094;2023-06-14T03:13:38;27.80;32.40
11989;DHT22;6054;50.966;7.094;2023-06-14T03:16:06;27.90;32.60
11989;DHT22;6054;50.966;7.094;2023-06-14T03:18:34;27.50;32.30
11989;DHT22;6054;50.966;7.094;2023-06-14T03:21:01;27.70;32.90
11989;DHT22;6054;50.966;7.094;2023-06-14T03:23:30;27.50;32.90
11989;DHT22;6054;50.966;7.094;2023-06-14T03:25:57;27.50;33.10
11989;DHT22;6054;50.966;7.094;2023-06-14T03:28:24;27.30;33.00
11989;DHT22;6054;50.966;7.094;2023-06-14T03:30:51;27.30;33.20
11989;DHT22;6054;50.966;7.094;2023-06-14T03:33:18;27.30;33.30
11989;DHT22;6054;50.966;7.094;2023-06-14T03:35:44;27.20;33.30
11989;DHT22;6054;50.966;7.094;2023-06-14T03:38:11;27.20;33.30
11989;DHT22;6054;50.966;7.094;2023-06-14T03:40:39;27.30;33.30
11989;DHT22;6054;50.966;7.094;2023-06-14T03:43:06;27.10;33.40
11989;DHT22;6054;50.966;7.094;2023-06-14T03:45:33;27.00;33.70
11989;DHT22;6054;50.966;7.094;2023-06-14T03:47:59;27.00;33.50
11989;DHT22;6054;50.966;7.094;2023-06-14T03:50:27;27.00;33.50
11989;DHT22;6054;50.966;7.094;2023-06-14T03:52:53;27.00;33.70
11989;DHT22;6054;50.966;7.094;2023-06-14T03:55:20;27.00;33.90
11989;DHT22;6054;50.966;7.094;2023-06-14T03:57:48;27.20;34.30
11989;DHT22;6054;50.966;7.094;2023-06-14T04:00:16;27.20;34.50
11989;DHT22;6054;50.966;7.094;2023-06-14T04:02:43;26.90;34.60
11989;DHT22;6054;50.966;7.094;2023-06-14T04:05:10;27.00;34.50
11989;DHT22;6054;50.966;7.094;2023-06-14T04:07:37;27.00;34.50
11989;DHT22;6054;50.966;7.094;2023-06-14T04:10:07;26.80;34.80
11989;DHT22;6054;50.966;7.094;2023-06-14T04:12:34;26.80;35.10
11989;DHT22;6054;50.966;7.094;2023-06-14T04:15:03;26.90;35.00
11989;DHT22;6054;50.966;7.094;2023-06-14T04:17:31;26.80;35.20
11989;DHT22;6054;50.966;7.094;2023-06-14T04:19:59;26.80;35.50
11989;DHT22;6054;50.966;7.094;2023-06-14T04:22:26;26.80;36.20
11989;DHT22;6054;50.966;7.094;2023-06-14T04:24:54;26.80;35.80
11989;DHT22;6054;50.966;7.094;2023-06-14T04:27:22;26.90;35.90
11989;DHT22;6054;50.966;7.094;2023-06-14T04:29:51;27.10;36.20
11989;DHT22;6054;50.966;7.094;2023-06-14T04:32:23;26.90;36.50
11989;DHT22;6054;50.966;7.094;2023-06-14T04:34:52;27.00;36.50
11989;DHT22;6054;50.966;7.094;2023-06-14T04:37:19;27.00;36.70
11989;DHT22;6054;50.966;7.094;2023-06-14T04:39:46;27.20;36.70
11989;DHT22;6054;50.966;7.094;2023-06-14T04:42:13;27.00;36.60
11989;DHT22;6054;50.966;7.094;2023-06-14T04:44:41;27.00;36.70
11989;DHT22;6054;50.966;7.094;2023-06-14T04:47:09;27.00;37.30
11989;DHT22;6054;50.966;7.094;2023-06-14T04:49:38;27.10;36.90
11989;DHT22;6054;50.966;7.094;2023-06-14T04:52:05;27.00;37.20
11989;DHT22;6054;50.966;7.094;2023-06-14T04:54:32;27.10;37.30
11989;DHT22;6054;50.966;7.094;2023-06-14T04:57:02;27.40;37.40
11989;DHT22;6054;50.966;7.094;2023-06-14T04:59:29;27.20;37.50
11989;DHT22;6054;50.966;7.094;2023-06-14T05:01:59;27.20;37.20
11989;DHT22;6054;50.966;7.094;2023-06-14T05:04:26;27.20;37.00
11989;DHT22;6054;50.966;7.094;2023-06-14T05:06:54;27.20;37.00
11989;DHT22;6054;50.966;7.094;2023-06-14T05:09:22;27.30;36.60
11989;DHT22;6054;50.966;7.094;2023-06-14T05:11:49;27.30;37.20
11989;DHT22;6054;50.966;7.094;2023-06-14T05:14:16;27.40;36.70
11989;DHT22;6054;50.966;7.094;2023-06-14T05:16:42;27.50;36.80
11989;DHT22;6054;50.966;7.094;2023-06-14T05:19:09;27.70;37.00
11989;DHT22;6054;50.966;7.094;2023-06-14T05:21:36;27.70;37.30
11989;DHT22;6054;50.966;7.094;2023-06-14T05:24:05;27.60;37.10
11989;DHT22;6054;50.966;7.094;2023-06-14T05:26:32;27.70;37.50
11989;DHT22;6054;50.966;7.094;2023-06-14T05:28:59;28.00;37.70
11989;DHT22;6054;50.966;7.094;2023-06-14T05:31:27;27.90;37.70
11989;DHT22;6054;50.966;7.094;2023-06-14T05:33:54;27.90;36.90
11989;DHT22;6054;50.966;7.094;2023-06-14T05:36:21;28.00;35.80
11989;DHT22;6054;50.966;7.094;2023-06-14T05:38:48;28.00;35.50
11989;DHT22;6054;50.966;7.094;2023-06-14T05:41:17;28.10;34.20
11989;DHT22;6054;50.966;7.094;2023-06-14T05:43:46;28.20;34.20
11989;DHT22;6054;50.966;7.094;2023-06-14T05:46:12;28.40;34.10
11989;DHT22;6054;50.966;7.094;2023-06-14T05:48:40;28.30;33.60
11989;DHT22;6054;50.966;7.094;2023-06-14T05:51:07;28.40;32.70
11989;DHT22;6054;50.966;7.094;2023-06-14T05:53:34;28.40;32.30
11989;DHT22;6054;50.966;7.094;2023-06-14T05:56:01;28.50;32.30
11989;DHT22;6054;50.966;7.094;2023-06-14T05:58:29;28.70;31.70
11989;DHT22;6054;50.966;7.094;2023-06-14T06:00:56;28.60;31.00
11989;DHT22;6054;50.966;7.094;2023-06-14T06:03:23;28.70;31.10
11989;DHT22;6054;50.966;7.094;2023-06-14T06:05:50;28.70;31.80
11989;DHT22;6054;50.966;7.094;2023-06-14T06:08:16;28.90;31.70
11989;DHT22;6054;50.966;7.094;2023-06-14T06:10:44;28.80;31.60
11989;DHT22;6054;50.966;7.094;2023-06-14T06:13:10;29.00;31.70
11989;DHT22;6054;50.966;7.094;2023-06-14T06:15:38;29.00;31.20
11989;DHT22;6054;50.966;7.094;2023-06-14T06:18:05;29.00;30.80
11989;DHT22;6054;50.966;7.094;2023-06-14T06:20:32;29.20;30.90
11989;DHT22;6054;50.966;7.094;2023-06-14T06:22:59;29.40;30.50
11989;DHT22;6054;50.966;7.094;2023-06-14T06:25:27;29.20;30.00
11989;DHT22;6054;50.966;7.094;2023-06-14T06:27:54;29.50;30.00
11989;DHT22;6054;50.966;7.094;2023-06-14T06:30:22;29.50;30.40
11989;DHT22;6054;50.966;7.094;2023-06-14T06:32:50;29.30;30.20
11989;DHT22;6054;50.966;7.094;2023-06-14T06:35:17;29.40;30.50
11989;DHT22;6054;50.966;7.094;2023-06-14T06:37:44;29.40;30.20
11989;DHT22;6054;50.966;7.094;2023-06-14T06:40:11;29.50;30.00
11989;DHT22;6054;50.966;7.094;2023-06-14T06:42:38;29.60;29.90
11989;DHT22;6054;50.966;7.094;2023-06-14T06:45:05;29.70;30.00
11989;DHT22;6054;50.966;7.094;2023-06-14T06:47:32;29.80;30.00
11989;DHT22;6054;50.966;7.094;2023-06-14T06:50:00;29.90;29.40
11989;DHT22;6054;50.966;7.094;2023-06-14T06:52:27;30.00;28.80
11989;DHT22;6054;50.966;7.094;2023-06-14T06:54:54;30.00;28.60
11989;DHT22;6054;50.966;7.094;2023-06-14T06:57:21;29.90;28.70
11989;DHT22;6054;50.966;7.094;2023-06-14T06:59:51;30.00;28.90
11989;DHT22;6054;50.966;7.094;2023-06-14T07:02:18;30.00;28.50
11989;DHT22;6054;50.966;7.094;2023-06-14T07:04:45;30.00;28.60
11989;DHT22;6054;50.966;7.094;2023-06-14T07:07:13;30.10;28.50
11989;DHT22;6054;50.966;7.094;2023-06-14T07:09:40;30.30;28.10
11989;DHT22;6054;50.966;7.094;2023-06-14T07:12:07;30.10;28.30
11989;DHT22;6054;50.966;7.094;2023-06-14T07:14:34;30.20;28.20
11989;DHT22;6054;50.966;7.094;2023-06-14T07:17:01;30.10;27.70
11989;DHT22;6054;50.966;7.094;2023-06-14T07:19:27;30.20;27.70
11989;DHT22;6054;50.966;7.094;2023-06-14T07:21:56;30.20;27.70
11989;DHT22;6054;50.966;7.094;2023-06-14T07:24:29;30.40;27.20
11989;DHT22;6054;50.966;7.094;2023-06-14T07:27:01;30.30;27.20
11989;DHT22;6054;50.966;7.094;2023-06-14T07:29:29;30.40;27.40
11989;DHT22;6054;50.966;7.094;2023-06-14T07:31:56;30.50;26.90
11989;DHT22;6054;50.966;7.094;2023-06-14T07:34:23;30.60;26.90
11989;DHT22;6054;50.966;7.094;2023-06-14T07:36:50;30.70;26.50
11989;DHT22;6054;50.966;7.094;2023-06-14T07:39:17;30.70;26.50
11989;DHT22;6054;50.966;7.094;2023-06-14T07:41:48;30.80;26.00
11989;DHT22;6054;50.966;7.094;2023-06-14T07:44:15;30.90;26.30
11989;DHT22;6054;50.966;7.094;2023-06-14T07:46:42;31.00;26.30
11989;DHT22;6054;50.966;7.094;2023-06-14T07:49:09;31.10;26.30
11989;DHT22;6054;50.966;7.094;2023-06-14T07:51:36;31.10;25.80
11989;DHT22;6054;50.966;7.094;2023-06-14T07:54:03;31.20;26.30
11989;DHT22;6054;50.966;7.094;2023-06-14T07:56:32;31.30;26.00
11989;DHT22;6054;50.966;7.094;2023-06-14T07:59:00;31.40;25.60
11989;DHT22;6054;50.966;7.094;2023-06-14T08:01:27;31.40;25.30
11989;DHT22;6054;50.966;7.094;2023-06-14T08:03:54;31.70;24.90
11989;DHT22;6054;50.966;7.094;2023-06-14T08:06:20;31.60;24.40
11989;DHT22;6054;50.966;7.094;2023-06-14T08:08:47;31.90;25.00
11989;DHT22;6054;50.966;7.094;2023-06-14T08:11:14;31.70;24.40
11989;DHT22;6054;50.966;7.094;2023-06-14T08:13:41;31.90;24.00
11989;DHT22;6054;50.966;7.094;2023-06-14T08:16:09;31.90;24.30
11989;DHT22;6054;50.966;7.094;2023-06-14T08:18:36;32.20;24.30
11989;DHT22;6054;50.966;7.094;2023-06-14T08:21:03;32.00;24.60
11989;DHT22;6054;50.966;7.094;2023-06-14T08:23:30;32.20;24.30
11989;DHT22;6054;50.966;7.094;2023-06-14T08:25:56;32.40;23.90
11989;DHT22;6054;50.966;7.094;2023-06-14T08:28:24;32.60;23.90
11989;DHT22;6054;50.966;7.094;2023-06-14T08:30:53;32.40;23.60
11989;DHT22;6054;50.966;7.094;2023-06-14T08:33:22;32.40;23.50
11989;DHT22;6054;50.966;7.094;2023-06-14T08:35:49;32.50;24.20
11989;DHT22;6054;50.966;7.094;2023-06-14T08:38:15;32.60;23.80
11989;DHT22;6054;50.966;7.094;2023-06-14T08:40:42;32.70;23.50
11989;DHT22;6054;50.966;7.094;2023-06-14T08:43:10;32.60;23.80
11989;DHT22;6054;50.966;7.094;2023-06-14T08:45:37;32.80;23.70
11989;DHT22;6054;50.966;7.094;2023-06-14T08:48:04;32.90;23.70
11989;DHT22;6054;50.966;7.094;2023-06-14T08:50:34;33.00;24.70
11989;DHT22;6054;50.966;7.094;2023-06-14T08:53:02;33.10;24.00
11989;DHT22;6054;50.966;7.094;2023-06-14T08:55:31;33.10;23.10
11989;DHT22;6054;50.966;7.094;2023-06-14T08:57:58;33.30;23.90
11989;DHT22;6054;50.966;7.094;2023-06-14T09:00:26;33.40;23.80
11989;DHT22;6054;50.966;7.094;2023-06-14T09:02:54;33.40;23.70
11989;DHT22;6054;50.966;7.094;2023-06-14T09:05:23;33.50;23.40
11989;DHT22;6054;50.966;7.094;2023-06-14T09:07:51;33.60;23.30
11989;DHT22;6054;50.966;7.094;2023-06-14T09:10:21;33.70;22.90
11989;DHT22;6054;50.966;7.094;2023-06-14T09:12:48;33.70;23.20
11989;DHT22;6054;50.966;7.094;2023-06-14T09:15:15;33.70;23.40
11989;DHT22;6054;50.966;7.094;2023-06-14T09:17:43;33.80;23.00
11989;DHT22;6054;50.966;7.094;2023-06-14T09:20:10;33.90;23.00
11989;DHT22;6054;50.966;7.094;2023-06-14T09:22:39;33.90;23.00
11989;DHT22;6054;50.966;7.094;2023-06-14T09:25:08;34.00;23.20
11989;DHT22;6054;50.966;7.094;2023-06-14T09:27:35;34.10;23.40
11989;DHT22;6054;50.966;7.094;2023-06-14T09:30:05;34.10;23.40
11989;DHT22;6054;50.966;7.094;2023-06-14T09:32:36;34.20;23.20
11989;DHT22;6054;50.966;7.094;2023-06-14T09:35:04;34.20;23.20
11989;DHT22;6054;50.966;7.094;2023-06-14T09:37:32;34.20;23.10
11989;DHT22;6054;50.966;7.094;2023-06-14T09:39:59;34.20;22.90
11989;DHT22;6054;50.966;7.094;2023-06-14T09:42:27;34.30;23.10
11989;DHT22;6054;50.966;7.094;2023-06-14T09:44:56;34.40;23.40
11989;DHT22;6054;50.966;7.094;2023-06-14T09:47:23;34.50;23.80
11989;DHT22;6054;50.966;7.094;2023-06-14T09:49:51;34.50;23.60
11989;DHT22;6054;50.966;7.094;2023-06-14T09:52:21;34.60;23.50
11989;DHT22;6054;50.966;7.094;2023-06-14T09:54:48;34.60;23.70
11989;DHT22;6054;50.966;7.094;2023-06-14T09:57:16;34.80;23.50
11989;DHT22;6054;50.966;7.094;2023-06-14T09:59:46;34.80;23.30
11989;DHT22;6054;50.966;7.094;2023-06-14T10:02:18;34.80;23.20
11989;DHT22;6054;50.966;7.094;2023-06-14T10:04:56;35.00;23.10
11989;DHT22;6054;50.966;7.094;2023-06-14T10:07:26;34.90;22.90
11989;DHT22;6054;50.966;7.094;2023-06-14T10:09:56;35.10;22.70
11989;DHT22;6054;50.966;7.094;2023-06-14T10:12:24;35.00;22.20
11989;DHT22;6054;50.966;7.094;2023-06-14T10:14:52;35.00;22.40
11989;DHT22;6054;50.966;7.094;2023-06-14T10:17:27;35.00;22.40
11989;DHT22;6054;50.966;7.094;2023-06-14T10:20:06;35.10;23.40
11989;DHT22;6054;50.966;7.094;2023-06-14T10:22:42;35.10;23.40
11989;DHT22;6054;50.966;7.094;2023-06-14T10:25:13;35.10;23.20
11989;DHT22;6054;50.966;7.094;2023-06-14T10:27:52;35.10;23.40
11989;DHT22;6054;50.966;7.094;2023-06-14T10:30:25;35.20;23.40
11989;DHT22;6054;50.966;7.094;2023-06-14T10:33:05;35.30;23.60
11989;DHT22;6054;50.966;7.094;2023-06-14T10:35:32;35.40;23.80
11989;DHT22;6054;50.966;7.094;2023-06-14T10:38:07;35.40;23.50
11989;DHT22;6054;50.966;7.094;2023-06-14T10:40:34;35.40;23.50
11989;DHT22;6054;50.966;7.094;2023-06-14T10:43:01;35.40;24.00
11989;DHT22;6054;50.966;7.094;2023-06-14T10:46:12;35.40;24.10
11989;DHT22;6054;50.966;7.094;2023-06-14T10:48:40;35.40;24.00
11989;DHT22;6054;50.966;7.094;2023-06-14T10:51:19;35.40;24.20
11989;DHT22;6054;50.966;7.094;2023-06-14T10:53:47;35.50;24.20
11989;DHT22;6054;50.966;7.094;2023-06-14T10:56:26;35.50;24.00
11989;DHT22;6054;50.966;7.094;2023-06-14T10:58:53;35.50;23.80
11989;DHT22;6054;50.966;7.094;2023-06-14T11:01:35;35.50;23.90
11989;DHT22;6054;50.966;7.094;2023-06-14T11:04:12;35.40;24.20
11989;DHT22;6054;50.966;7.094;2023-06-14T11:06:46;35.40;24.40
11989;DHT22;6054;50.966;7.094;2023-06-14T11:09:35;35.40;24.90
11989;DHT22;6054;50.966;7.094;2023-06-14T11:12:10;35.40;24.70
11989;DHT22;6054;50.966;7.094;2023-06-14T11:14:37;35.50;24.60
11989;DHT22;6054;50.966;7.094;2023-06-14T11:17:06;35.50;24.60
11989;DHT22;6054;50.966;7.094;2023-06-14T11:19:33;35.60;24.20
11989;DHT22;6054;50.966;7.094;2023-06-14T11:22:00;35.60;24.40
11989;DHT22;6054;50.966;7.094;2023-06-14T11:24:26;35.60;24.30
11989;DHT22;6054;50.966;7.094;2023-06-14T11:26:55;35.80;24.70
11989;DHT22;6054;50.966;7.094;2023-06-14T11:29:23;35.70;24.60
11989;DHT22;6054;50.966;7.094;2023-06-14T11:31:50;35.70;24.10
11989;DHT22;6054;50.966;7.094;2023-06-14T11:34:18;35.80;23.80
11989;DHT22;6054;50.966;7.094;2023-06-14T11:36:46;35.70;23.70
11989;DHT22;6054;50.966;7.094;2023-06-14T11:39:13;35.70;23.60
11989;DHT22;6054;50.966;7.094;2023-06-14T11:41:41;35.70;23.70
11989;DHT22;6054;50.966;7.094;2023-06-14T11:44:09;35.70;24.20
11989;DHT22;6054;50.966;7.094;2023-06-14T11:46:36;35.80;23.50
11989;DHT22;6054;50.966;7.094;2023-06-14T11:49:03;35.80;23.10
11989;DHT22;6054;50.966;7.094;2023-06-14T11:51:32;35.90;23.40
11989;DHT22;6054;50.966;7.094;2023-06-14T11:53:59;35.90;22.80
11989;DHT22;6054;50.966;7.094;2023-06-14T11:56:29;35.90;23.00
11989;DHT22;6054;50.966;7.094;2023-06-14T11:58:55;36.00;22.70
11989;DHT22;6054;50.966;7.094;2023-06-14T12:01:23;35.90;22.70
11989;DHT22;6054;50.966;7.094;2023-06-14T12:03:53;35.90;22.80
11989;DHT22;6054;50.966;7.094;2023-06-14T12:06:26;35.90;23.10
11989;DHT22;6054;50.966;7.094;2023-06-14T12:08:57;35.90;23.10
11989;DHT22;6054;50.966;7.094;2023-06-14T12:11:24;35.90;22.80
11989;DHT22;6054;50.966;7.094;2023-06-14T12:13:54;36.00;23.20
11989;DHT22;6054;50.966;7.094;2023-06-14T12:16:30;36.00;23.00
11989;DHT22;6054;50.966;7.094;2023-06-14T12:19:00;36.00;23.00
11989;DHT22;6054;50.966;7.094;2023-06-14T12:21:27;36.00;23.10
11989;DHT22;6054;50.966;7.094;2023-06-14T12:23:54;36.00;23.10
11989;DHT22;6054;50.966;7.094;2023-06-14T12:26:24;35.90;22.90
11989;DHT22;6054;50.966;7.094;2023-06-14T12:28:52;35.90;22.90
11989;DHT22;6054;50.966;7.094;2023-06-14T12:31:19;35.90;23.10
11989;DHT22;6054;50.966;7.094;2023-06-14T12:33:46;35.80;23.10
11989;DHT22;6054;50.966;7.094;2023-06-14T12:36:14;35.70;23.10
11989;DHT22;6054;50.966;7.094;2023-06-14T12:38:42;35.70;23.20
11989;DHT22;6054;50.966;7.094;2023-06-14T12:41:09;35.80;23.50
11989;DHT22;6054;50.966;7.094;2023-06-14T12:43:37;35.80;23.20
11989;DHT22;6054;50.966;7.094;2023-06-14T12:46:04;35.80;23.20
11989;DHT22;6054;50.966;7.094;2023-06-14T12:48:31;35.80;23.20
11989;DHT22;6054;50.966;7.094;2023-06-14T12:50:59;35.80;23.10
11989;DHT22;6054;50.966;7.094;2023-06-14T12:53:26;35.80;23.30
11989;DHT22;6054;50.966;7.094;2023-06-14T12:55:53;35.70;23.40
11989;DHT22;6054;50.966;7.094;2023-06-14T12:58:20;35.60;23.30
11989;DHT22;6054;50.966;7.094;2023-06-14T13:00:48;35.50;23.20
11989;DHT22;6054;50.966;7.094;2023-06-14T13:03:15;35.50;23.40
11989;DHT22;6054;50.966;7.094;2023-06-14T13:05:41;35.50;23.50
11989;DHT22;6054;50.966;7.094;2023-06-14T13:08:08;35.40;23.50
11989;DHT22;6054;50.966;7.094;2023-06-14T13:10:35;35.40;23.40
11989;DHT22;6054;50.966;7.094;2023-06-14T13:13:02;35.40;23.40
11989;DHT22;6054;50.966;7.094;2023-06-14T13:15:29;35.30;23.70
11989;DHT22;6054;50.966;7.094;2023-06-14T13:17:57;35.40;23.80
11989;DHT22;6054;50.966;7.094;2023-06-14T13:20:24;35.30;23.50
11989;DHT22;6054;50.966;7.094;2023-06-14T13:22:51;35.40;23.80
11989;DHT22;6054;50.966;7.094;2023-06-14T13:25:18;35.40;23.50
11989;DHT22;6054;50.966;7.094;2023-06-14T13:27:45;35.40;23.50
11989;DHT22;6054;50.966;7.094;2023-06-14T13:30:12;35.40;23.40
11989;DHT22;6054;50.966;7.094;2023-06-14T13:32:39;35.40;23.50
11989;DHT22;6054;50.966;7.094;2023-06-14T13:35:07;35.30;23.10
11989;DHT22;6054;50.966;7.094;2023-06-14T13:37:34;35.30;23.60
11989;DHT22;6054;50.966;7.094;2023-06-14T13:40:01;35.10;23.50
11989;DHT22;6054;50.966;7.094;2023-06-14T13:42:28;35.20;23.40
11989;DHT22;6054;50.966;7.094;2023-06-14T13:44:57;35.20;23.20
11989;DHT22;6054;50.966;7.094;2023-06-14T13:47:23;35.20;23.20
11989;DHT22;6054;50.966;7.094;2023-06-14T13:49:50;35.30;23.20
11989;DHT22;6054;50.966;7.094;2023-06-14T13:52:18;35.40;23.40
11989;DHT22;6054;50.966;7.094;2023-06-14T13:54:45;35.60;23.30
11989;DHT22;6054;50.966;7.094;2023-06-14T13:57:12;35.60;23.10
11989;DHT22;6054;50.966;7.094;2023-06-14T13:59:39;35.60;23.20
11989;DHT22;6054;50.966;7.094;2023-06-14T14:02:06;35.70;23.20
11989;DHT22;6054;50.966;7.094;2023-06-14T14:04:33;35.70;23.20
11989;DHT22;6054;50.966;7.094;2023-06-14T14:07:01;35.60;23.10
11989;DHT22;6054;50.966;7.094;2023-06-14T14:09:29;35.60;23.00
11989;DHT22;6054;50.966;7.094;2023-06-14T14:11:56;35.60;23.00
11989;DHT22;6054;50.966;7.094;2023-06-14T14:14:22;35.50;23.00
11989;DHT22;6054;50.966;7.094;2023-06-14T14:16:50;35.40;23.20
11989;DHT22;6054;50.966;7.094;2023-06-14T14:19:18;35.40;23.30
11989;DHT22;6054;50.966;7.094;2023-06-14T14:21:45;35.40;23.40
11989;DHT22;6054;50.966;7.094;2023-06-14T14:24:12;35.40;23.30
11989;DHT22;6054;50.966;7.094;2023-06-14T14:26:40;35.40;23.30
11989;DHT22;6054;50.966;7.094;2023-06-14T14:29:07;35.30;23.00
11989;DHT22;6054;50.966;7.094;2023-06-14T14:31:34;35.30;23.10
11989;DHT22;6054;50.966;7.094;2023-06-14T14:34:00;35.30;23.10
11989;DHT22;6054;50.966;7.094;2023-06-14T14:36:27;35.30;23.20
11989;DHT22;6054;50.966;7.094;2023-06-14T14:38:54;35.30;23.10
11989;DHT22;6054;50.966;7.094;2023-06-14T14:41:21;35.30;23.40
11989;DHT22;6054;50.966;7.094;2023-06-14T14:43:49;35.30;23.10
11989;DHT22;6054;50.966;7.094;2023-06-14T14:46:15;35.30;23.20
11989;DHT22;6054;50.966;7.094;2023-06-14T14:48:42;35.20;23.50
11989;DHT22;6054;50.966;7.094;2023-06-14T14:51:09;35.20;23.40
11989;DHT22;6054;50.966;7.094;2023-06-14T14:53:36;35.20;23.40
11989;DHT22;6054;50.966;7.094;2023-06-14T14:56:03;35.10;23.20
11989;DHT22;6054;50.966;7.094;2023-06-14T14:58:30;35.20;23.40
11989;DHT22;6054;50.966;7.094;2023-06-14T15:00:58;35.20;23.40
11989;DHT22;6054;50.966;7.094;2023-06-14T15:03:25;35.20;23.20
11989;DHT22;6054;50.966;7.094;2023-06-14T15:05:51;35.30;23.30
11989;DHT22;6054;50.966;7.094;2023-06-14T15:08:19;35.40;23.50
11989;DHT22;6054;50.966;7.094;2023-06-14T15:10:46;35.40;23.40
11989;DHT22;6054;50.966;7.094;2023-06-14T15:13:14;35.40;22.10
11989;DHT22;6054;50.966;7.094;2023-06-14T15:15:41;35.40;22.10
11989;DHT22;6054;50.966;7.094;2023-06-14T15:18:09;35.40;22.40
11989;DHT22;6054;50.966;7.094;2023-06-14T15:20:36;35.40;22.40
11989;DHT22;6054;50.966;7.094;2023-06-14T15:23:02;35.40;22.10
11989;DHT22;6054;50.966;7.094;2023-06-14T15:25:30;35.50;22.70
11989;DHT22;6054;50.966;7.094;2023-06-14T15:27:58;35.40;22.90
11989;DHT22;6054;50.966;7.094;2023-06-14T15:30:25;35.40;22.90
11989;DHT22;6054;50.966;7.094;2023-06-14T15:32:51;35.40;22.70
11989;DHT22;6054;50.966;7.094;2023-06-14T15:35:20;35.50;22.70
11989;DHT22;6054;50.966;7.094;2023-06-14T15:37:47;35.40;22.70
11989;DHT22;6054;50.966;7.094;2023-06-14T15:40:16;35.50;22.90
11989;DHT22;6054;50.966;7.094;2023-06-14T15:42:42;35.40;23.10
11989;DHT22;6054;50.966;7.094;2023-06-14T15:45:10;35.40;23.40
11989;DHT22;6054;50.966;7.094;2023-06-14T15:47:37;35.40;23.20
11989;DHT22;6054;50.966;7.094;2023-06-14T15:50:04;35.40;23.20